Time;durP1;ratioP1;P1;durP2;ratioP2;P2;SDS_P1;SDS_P2;PMS_P1;PMS_P2;Temp;Humidity;BMP_temperature;BMP_pressure;BME280_temperature;BME280_humidity;BME280_pressure;Samples;Min_cycle;Max_cycle;Signal;HPM_P1;HPM_P2
2022/08/10 00:00:21;;;;;;;4.87;1.67;;;;;;;19.53;61.42;102564.94;5273959;28;20029;-77
2022/08/10 00:02:58;;;;;;;5.30;1.80;;;;;;;19.55;61.66;102560.34;5273760;28;20122;-78
2022/08/10 00:05:29;;;;;;;3.23;1.77;;;;;;;19.45;61.97;102564.63;5273825;28;20024;-77
2022/08/10 00:08:01;;;;;;;3.27;2.07;;;;;;;19.43;61.94;102566.53;5274496;28;20582;-77
2022/08/10 00:10:32;;;;;;;7.03;2.00;;;;;;;19.48;61.53;102551.13;5273757;28;20093;-77
2022/08/10 00:13:03;;;;;;;3.90;1.80;;;;;;;19.45;61.62;102556.66;5273939;28;20268;-77
2022/08/10 00:15:35;;;;;;;3.70;1.63;;;;;;;19.33;62.24;102559.25;5273339;28;20060;-77
2022/08/10 00:18:06;;;;;;;3.33;1.87;;;;;;;19.31;62.42;102561.16;5272099;28;20028;-77
2022/08/10 00:20:37;;;;;;;3.07;1.70;;;;;;;19.28;62.50;102553.41;5273445;28;20059;-77
2022/08/10 00:23:09;;;;;;;7.03;2.03;;;;;;;19.22;62.48;102553.81;5272877;28;20030;-77
2022/08/10 00:25:40;;;;;;;2.20;1.70;;;;;;;19.08;62.94;102542.31;5273484;28;20060;-78
2022/08/10 00:28:11;;;;;;;5.33;1.80;;;;;;;19.27;62.13;102559.66;5272846;28;20103;-77
2022/08/10 00:30:43;;;;;;;3.67;1.70;;;;;;;19.25;62.23;102558.94;5273576;28;20031;-77
2022/08/10 00:33:14;;;;;;;1.50;1.37;;;;;;;19.25;62.47;102547.44;5272115;28;20115;-77
2022/08/10 00:35:46;;;;;;;3.80;1.40;;;;;;;19.05;63.23;102542.53;5274275;28;20118;-77
2022/08/10 00:38:17;;;;;;;6.03;2.00;;;;;;;19.07;62.96;102545.09;5273239;28;20028;-77
2022/08/10 00:40:49;;;;;;;3.27;1.30;;;;;;;19.14;62.87;102535.78;5273696;28;20040;-77
2022/08/10 00:43:20;;;;;;;1.80;1.40;;;;;;;18.93;63.60;102546.03;5273167;28;20019;-77
2022/08/10 00:45:51;;;;;;;3.73;1.60;;;;;;;18.95;63.45;102536.16;5272325;28;20053;-77
2022/08/10 00:48:23;;;;;;;3.17;1.50;;;;;;;18.97;63.28;102532.44;5272162;28;20024;-77
2022/08/10 00:50:54;;;;;;;5.27;1.73;;;;;;;18.88;63.67;102545.50;5273430;28;20111;-77
2022/08/10 00:53:27;;;;;;;3.33;1.87;;;;;;;18.71;64.66;102544.88;5270804;28;20024;-77
2022/08/10 00:55:58;;;;;;;4.37;1.63;;;;;;;18.77;63.96;102540.94;5273000;28;20433;-77
2022/08/10 00:58:30;;;;;;;4.50;1.50;;;;;;;18.79;64.06;102536.38;5273187;28;20064;-78
2022/08/10 01:01:02;;;;;;;4.90;2.00;;;;;;;18.66;64.63;102533.72;5273167;28;20036;-77
2022/08/10 01:03:33;;;;;;;4.03;1.57;;;;;;;18.66;64.76;102539.03;5270441;28;20115;-77
2022/08/10 01:06:19;;;;;;;3.67;2.10;;;;;;;18.80;64.10;102538.91;5281983;23;20115;-78
2022/08/10 01:09:00;;;;;;;4.87;1.90;;;;;;;18.67;64.73;102533.63;5271211;28;20052;-77
2022/08/10 01:11:38;;;;;;;3.77;1.67;;;;;;;18.73;64.77;102535.84;5272929;28;20099;-78
2022/08/10 01:14:20;;;;;;;2.30;1.77;;;;;;;18.59;64.82;102535.91;5273448;28;20524;-77
2022/08/10 01:17:01;;;;;;;6.60;2.07;;;;;;;18.61;64.93;102537.53;5271365;28;20029;-77
2022/08/10 01:20:01;;;;;;;9.20;2.57;;;;;;;18.72;64.37;102533.28;5272159;28;21050;-78
2022/08/10 01:23:10;;;;;;;5.67;2.13;;;;;;;18.73;64.27;102524.34;5272630;28;20119;-78
2022/08/10 01:25:58;;;;;;;3.57;2.10;;;;;;;18.65;64.59;102524.03;5272727;28;20400;-77
2022/08/10 01:29:16;;;;;;;3.63;2.00;;;;;;;18.52;65.41;102524.88;5273024;28;21068;-77
2022/08/10 01:31:50;;;;;;;5.70;3.70;;;;;;;18.42;66.13;102529.94;5238485;28;20048;-77
2022/08/10 01:34:26;;;;;;;7.65;2.10;;;;;;;18.26;66.12;102519.50;5271732;28;20106;-78
2022/08/10 01:37:02;;;;;;;3.17;1.80;;;;;;;18.24;66.63;102518.75;5272687;28;20056;-77
2022/08/10 01:39:39;;;;;;;5.03;2.17;;;;;;;18.36;66.25;102519.75;5270425;28;20259;-77
2022/08/10 01:42:13;;;;;;;4.50;2.40;;;;;;;18.27;66.52;102515.91;5273043;28;20296;-77
2022/08/10 01:44:50;;;;;;;8.67;2.17;;;;;;;18.29;66.45;102524.63;5271509;28;20032;-78
2022/08/10 01:50:27;;;;;;;2.60;1.67;;;;;;;18.22;66.72;102518.84;5272817;28;20058;-77
2022/08/10 01:53:06;;;;;;;5.90;2.60;;;;;;;18.11;67.12;102516.03;5272331;28;20638;-77
2022/08/10 01:55:39;;;;;;;3.30;1.97;;;;;;;17.89;68.12;102510.34;5271809;28;20059;-78
2022/08/10 01:58:14;;;;;;;3.47;2.03;;;;;;;18.08;67.52;102519.72;5272722;28;20107;-78
2022/08/10 02:00:48;;;;;;;6.30;2.73;;;;;;;17.95;68.29;102517.03;5272144;28;20421;-78
2022/08/10 02:03:21;;;;;;;4.43;2.13;;;;;;;17.89;68.52;102520.09;5269134;28;20196;-78
2022/08/10 02:05:56;;;;;;;7.57;2.50;;;;;;;17.80;68.90;102529.50;5273506;28;20044;-78
2022/08/10 02:08:30;;;;;;;2.60;2.33;;;;;;;17.82;69.09;102516.97;5272095;28;20033;-77
2022/08/10 02:11:02;;;;;;;2.65;1.90;;;;;;;17.87;68.79;102524.66;5270605;28;20037;-77
2022/08/10 02:13:34;;;;;;;3.07;2.40;;;;;;;17.90;68.74;102525.31;5271975;28;20036;-78
2022/08/10 02:16:08;;;;;;;4.97;2.90;;;;;;;17.83;69.14;102518.69;5272331;28;20028;-78
2022/08/10 02:18:40;;;;;;;;;;;;;;;18.28;65.69;102522.06;5270009;28;20056;-77
2022/08/10 02:21:13;;;;;;;4.10;2.60;;;;;;;17.86;68.77;102514.97;5271981;28;19951;-77
2022/08/10 02:23:45;;;;;;;8.83;3.30;;;;;;;17.80;68.75;102510.09;5275515;28;20017;-78
2022/08/10 02:26:17;;;;;;;3.83;2.70;;;;;;;17.71;69.13;102511.53;5273491;28;20036;-78
2022/08/10 02:28:50;;;;;;;6.40;2.57;;;;;;;17.58;69.61;102498.19;5272396;28;20021;-78
2022/08/10 02:31:24;;;;;;;5.87;3.40;;;;;;;17.78;69.25;102505.72;5271465;28;20047;-77
2022/08/10 02:33:56;;;;;;;8.27;2.45;;;;;;;17.69;70.10;102516.94;5271135;28;20739;-77
2022/08/10 02:36:33;;;;;;;5.90;2.27;;;;;;;17.61;70.40;102504.16;5271510;28;20032;-78
2022/08/10 02:39:06;;;;;;;5.80;2.67;;;;;;;17.64;70.48;102513.72;5271971;28;20032;-77
2022/08/10 02:41:41;;;;;;;4.80;3.22;;;;;;;17.66;69.93;102517.97;5271293;28;20476;-78
2022/08/10 02:44:24;;;;;;;7.73;2.83;;;;;;;17.61;69.71;102504.16;5271897;28;20553;-77
2022/08/10 02:47:09;;;;;;;4.57;2.40;;;;;;;17.54;70.82;102509.00;5270757;28;20462;-77
2022/08/10 02:49:50;;;;;;;4.83;2.67;;;;;;;17.60;70.33;102513.06;5271490;28;20127;-78
2022/08/10 02:52:29;;;;;;;5.53;2.70;;;;;;;17.50;70.63;102507.50;5271280;28;20029;-77
2022/08/10 02:55:26;;;;;;;3.20;2.70;;;;;;;17.49;70.30;102491.72;5271634;28;20532;-78
2022/08/10 02:58:01;;;;;;;5.77;2.83;;;;;;;17.20;72.17;102495.22;5271087;28;20121;-77
2022/08/10 03:00:39;;;;;;;6.80;3.10;;;;;;;17.28;71.97;102490.31;5274438;28;20514;-78
2022/08/10 03:03:17;;;;;;;6.30;2.93;;;;;;;17.36;71.62;102499.56;5270412;28;20086;-77
2022/08/10 03:05:53;;;;;;;3.53;2.30;;;;;;;17.28;71.54;102486.78;5271435;28;20041;-77
2022/08/10 03:08:32;;;;;;;4.23;3.43;;;;;;;17.16;72.61;102489.28;5271259;28;20021;-78
2022/08/10 03:11:07;;;;;;;7.07;2.60;;;;;;;17.14;72.56;102488.50;5271636;28;20492;-78
2022/08/10 03:13:41;;;;;;;5.10;3.00;;;;;;;17.06;72.90;102490.75;5271039;28;20119;-77
2022/08/10 03:16:14;;;;;;;4.85;3.47;;;;;;;16.96;73.32;102476.38;5274112;28;20151;-77
2022/08/10 03:18:46;;;;;;;3.33;2.67;;;;;;;17.08;72.73;102482.72;5274743;28;20025;-78
2022/08/10 03:21:19;;;;;;;4.27;2.97;;;;;;;16.93;73.80;102483.56;5275041;28;20031;-77
2022/08/10 03:23:51;;;;;;;5.67;3.27;;;;;;;17.11;73.25;102486.06;5275011;28;20032;-77
2022/08/10 03:26:23;;;;;;;5.17;3.30;;;;;;;16.83;74.04;102476.28;5275357;28;20036;-77
2022/08/10 03:28:56;;;;;;;4.50;3.30;;;;;;;16.77;74.45;102474.88;5274768;28;20051;-77
2022/08/10 03:31:28;;;;;;;5.83;3.00;;;;;;;16.81;74.17;102482.53;5274612;28;20495;-77
2022/08/10 03:34:01;;;;;;;3.90;2.90;;;;;;;16.93;74.01;102485.38;5274037;28;20033;-78
2022/08/10 03:36:32;;;;;;;3.30;2.80;;;;;;;16.89;74.03;102482.06;5274694;28;20036;-77
2022/08/10 03:39:04;;;;;;;5.73;3.33;;;;;;;16.72;75.05;102480.41;5274941;28;20017;-77
2022/08/10 03:41:47;;;;;;;5.03;3.30;;;;;;;16.83;74.45;102476.28;5274329;28;20020;-78
2022/08/10 03:44:23;;;;;;;3.60;3.03;;;;;;;16.80;74.49;102478.19;5274993;28;20066;-78
2022/08/10 03:46:59;;;;;;;6.30;3.60;;;;;;;16.89;74.79;102494.44;5288639;28;20024;-78
2022/08/10 03:49:34;;;;;;;6.57;3.30;;;;;;;16.72;75.46;102491.00;5295557;28;20035;-78
2022/08/10 03:52:05;;;;;;;5.57;3.77;;;;;;;16.65;75.71;102494.97;5295419;28;20028;-77
2022/08/10 03:54:37;;;;;;;8.63;3.23;;;;;;;16.61;75.89;102490.81;5295848;28;20043;-77
2022/08/10 03:57:09;;;;;;;5.77;3.30;;;;;;;16.58;76.55;102494.50;5294847;28;20422;-76
2022/08/10 03:59:40;;;;;;;6.23;3.70;;;;;;;16.57;76.35;102487.50;5295491;28;20031;-76
2022/08/10 04:02:13;;;;;;;6.93;4.10;;;;;;;16.58;76.51;102497.16;5276365;28;20025;-77
2022/08/10 04:04:44;;;;;;;8.13;3.80;;;;;;;16.66;76.18;102494.88;5273677;28;20074;-76
2022/08/10 04:07:16;;;;;;;4.60;3.83;;;;;;;16.59;76.16;102496.19;5291608;28;20047;-78
2022/08/10 04:09:47;;;;;;;6.70;3.90;;;;;;;16.64;76.24;102496.75;5295081;28;20028;-77
2022/08/10 04:12:19;;;;;;;6.97;4.10;;;;;;;16.43;76.96;102491.81;5295137;28;20041;-77
2022/08/10 04:14:50;;;;;;;5.33;3.93;;;;;;;16.41;77.57;102498.97;5294868;28;20028;-77
2022/08/10 04:17:24;;;;;;;8.77;3.80;;;;;;;16.45;77.58;102492.56;5294174;28;20097;-77
2022/08/10 04:19:58;;;;;;;7.47;4.10;;;;;;;16.37;77.96;102491.31;5295950;28;20567;-77
2022/08/10 04:22:31;;;;;;;;;;;;;;;16.84;73.58;102500.03;5299124;28;20028;-77
2022/08/10 04:25:04;;;;;;;5.83;4.40;;;;;;;16.30;78.30;102499.59;5293795;28;20303;-77
2022/08/10 04:27:36;;;;;;;7.73;4.53;;;;;;;16.26;78.32;102492.78;5293742;28;20089;-78
2022/08/10 04:30:07;;;;;;;6.47;4.77;;;;;;;16.25;79.11;102501.66;5293431;28;20651;-78
2022/08/10 04:32:40;;;;;;;12.47;4.80;;;;;;;16.35;78.65;102499.34;5292118;28;20023;-78
2022/08/10 04:35:15;;;;;;;9.00;4.60;;;;;;;16.28;79.18;102498.00;5293196;28;20085;-77
2022/08/10 04:37:49;;;;;;;5.53;4.33;;;;;;;16.30;79.04;102506.69;5294761;28;20032;-77
2022/08/10 04:40:22;;;;;;;6.30;4.07;;;;;;;16.35;78.60;102504.63;5294433;28;20062;-77
2022/08/10 04:42:53;;;;;;;9.63;4.77;;;;;;;16.29;78.80;102497.03;5294634;28;20058;-77
2022/08/10 04:45:24;;;;;;;5.13;4.37;;;;;;;16.29;79.24;102504.97;5294274;28;20028;-77
2022/08/10 04:47:56;;;;;;;8.40;4.13;;;;;;;16.22;79.66;102499.19;5293677;28;20031;-77
2022/08/10 04:50:27;;;;;;;10.70;4.33;;;;;;;16.18;80.18;102497.69;5294171;28;20024;-77
2022/08/10 04:52:58;;;;;;;9.30;4.70;;;;;;;16.20;80.13;102491.34;5294618;28;20403;-76
2022/08/10 04:55:30;;;;;;;4.57;3.77;;;;;;;16.12;81.12;102496.22;5293753;28;20040;-78
2022/08/10 04:58:01;;;;;;;5.93;4.57;;;;;;;16.12;81.30;102493.59;5294768;28;20073;-77
2022/08/10 05:00:32;;;;;;;8.67;4.90;;;;;;;16.12;81.25;102487.44;5292450;28;20498;-77
2022/08/10 05:03:04;;;;;;;6.40;4.77;;;;;;;16.25;80.57;102487.59;5292286;28;20059;-77
2022/08/10 05:05:35;;;;;;;5.73;5.00;;;;;;;16.12;81.82;102485.66;5292058;28;20103;-77
2022/08/10 05:08:06;;;;;;;8.43;4.77;;;;;;;16.14;81.58;102486.44;5294341;28;20028;-77
2022/08/10 05:10:37;;;;;;;8.37;4.77;;;;;;;16.15;81.89;102498.69;5293745;28;20565;-75
2022/08/10 05:13:09;;;;;;;9.03;4.60;;;;;;;16.26;81.02;102492.78;5294209;28;20043;-79
2022/08/10 05:15:42;;;;;;;7.73;4.60;;;;;;;16.30;80.90;102483.72;5293875;28;20032;-79
2022/08/10 05:18:13;;;;;;;5.60;5.03;;;;;;;16.39;80.58;102489.44;5292250;28;20024;-79
2022/08/10 05:20:45;;;;;;;7.23;4.97;;;;;;;16.30;81.50;102490.81;5294476;28;20027;-79
2022/08/10 05:23:16;;;;;;;9.17;5.40;;;;;;;16.32;81.68;102488.91;5293178;28;20043;-79
2022/08/10 05:25:47;;;;;;;11.00;5.20;;;;;;;16.43;81.19;102496.22;5294000;28;20020;-78
2022/08/10 05:28:19;;;;;;;7.23;5.73;;;;;;;16.41;81.49;102490.19;5293364;28;20024;-79
2022/08/10 05:30:50;;;;;;;6.90;5.53;;;;;;;16.32;82.28;102496.84;5293725;28;20036;-79
2022/08/10 05:33:21;;;;;;;7.23;5.73;;;;;;;16.51;80.62;102496.63;5292381;28;20020;-72
2022/08/10 05:35:52;;;;;;;7.23;5.50;;;;;;;16.57;81.07;102509.50;5293759;28;20078;-76
2022/08/10 05:38:26;;;;;;;7.60;5.00;;;;;;;16.55;81.58;102506.09;5292424;28;20089;-76
2022/08/10 05:40:58;;;;;;;7.88;5.13;;;;;;;16.52;81.64;102503.63;5293985;28;20031;-76
2022/08/10 05:43:30;;;;;;;11.77;6.57;;;;;;;16.58;82.96;102510.38;5292796;28;20020;-76
2022/08/10 05:46:01;;;;;;;8.57;5.50;;;;;;;16.61;81.85;102512.81;5292117;28;20032;-76
2022/08/10 05:48:34;;;;;;;6.40;5.23;;;;;;;16.57;82.88;102506.00;5290925;28;20035;-76
2022/08/10 05:51:06;;;;;;;8.57;5.47;;;;;;;16.53;84.35;102496.56;5295215;28;20039;-76
2022/08/10 05:53:37;;;;;;;10.73;7.00;;;;;;;16.40;100.00;102507.84;5295828;28;20032;-76
2022/08/10 05:56:09;;;;;;;10.63;6.40;;;;;;;16.50;100.00;102512.59;5293398;28;20414;-77
2022/08/10 05:58:41;;;;;;;9.57;6.40;;;;;;;16.44;100.00;102506.72;5291330;28;20020;-79
2022/08/10 06:01:15;;;;;;;8.77;6.90;;;;;;;16.61;100.00;102518.13;5273062;28;20032;-79
2022/08/10 06:03:57;;;;;;;7.15;6.55;;;;;;;16.72;100.00;102508.69;5269629;28;20484;-79
2022/08/10 06:06:33;;;;;;;9.77;7.13;;;;;;;16.77;100.00;102514.56;5294952;28;20598;-78
2022/08/10 06:09:06;;;;;;;12.33;6.90;;;;;;;16.67;100.00;102501.00;5293425;28;20028;-78
2022/08/10 06:11:37;;;;;;;10.05;6.90;;;;;;;16.72;100.00;102511.34;5292519;28;20024;-79
2022/08/10 06:17:02;;;;;;;7.33;6.27;;;;;;;16.79;100.00;102510.84;5292141;28;20043;-79
2022/08/10 06:19:34;;;;;;;9.43;6.70;;;;;;;16.64;100.00;102499.41;5274610;28;20043;-83
2022/08/10 06:22:06;;;;;;;12.60;7.53;;;;;;;16.87;100.00;102510.41;5270470;28;20033;-81
2022/08/10 06:24:39;;;;;;;15.73;6.93;;;;;;;16.93;100.00;102511.84;5269852;28;20032;-81
2022/08/10 06:27:12;;;;;;;8.33;6.53;;;;;;;16.94;100.00;102508.25;5271303;28;20462;-81
2022/08/10 06:29:45;;;;;;;10.73;7.07;;;;;;;16.97;100.00;102507.19;5286152;28;20278;-81
2022/08/10 06:32:18;;;;;;;7.50;6.80;;;;;;;17.05;100.00;102518.19;5290514;28;20024;-82
2022/08/10 06:34:55;;;;;;;13.32;6.95;;;;;;;17.11;100.00;102516.97;5291203;28;20040;-82
2022/08/10 06:37:29;;;;;;;8.70;7.20;;;;;;;17.09;100.00;102514.38;5288664;28;20028;-82
2022/08/10 06:40:00;;;;;;;7.63;6.90;;;;;;;17.24;100.00;102507.34;5293827;28;20185;-82
2022/08/10 06:42:38;;;;;;;7.60;6.63;;;;;;;17.31;100.00;102507.81;5291248;28;20103;-92
2022/08/10 06:45:14;;;;;;;12.67;6.90;;;;;;;17.37;100.00;102496.81;5288356;28;20449;-81
2022/08/10 06:47:48;;;;;;;9.00;7.00;;;;;;;17.46;100.00;102507.78;5292321;28;20028;-77
2022/08/10 06:50:25;;;;;;;13.48;7.28;;;;;;;17.45;100.00;102500.78;5290457;28;20123;-80
2022/08/10 06:52:58;;;;;;;9.33;6.80;;;;;;;17.55;100.00;102504.56;5290845;28;20098;-80
2022/08/10 06:55:32;;;;;;;8.63;6.50;;;;;;;17.56;100.00;102495.66;5287795;28;20504;-79
2022/08/10 06:58:05;;;;;;;10.35;6.03;;;;;;;17.66;100.00;102507.34;5293569;28;20032;-74
2022/08/10 07:00:41;;;;;;;8.60;6.00;;;;;;;17.74;100.00;102503.38;5286671;28;20086;-78
2022/08/10 07:03:16;;;;;;;7.23;5.57;;;;;;;17.78;100.00;102502.25;5284270;28;20028;-77
2022/08/10 07:05:50;;;;;;;6.80;5.77;;;;;;;17.84;100.00;102509.78;5286221;28;20051;-77
2022/08/10 07:08:24;;;;;;;7.83;5.27;;;;;;;17.99;100.00;102517.69;5295198;28;20028;-78
2022/08/10 07:10:55;;;;;;;8.15;6.22;;;;;;;18.01;100.00;102515.81;5295323;28;20144;-77
2022/08/10 07:13:29;;;;;;;6.87;5.00;;;;;;;18.16;97.61;102523.72;5286964;28;20543;-76
2022/08/10 07:16:01;;;;;;;5.97;5.43;;;;;;;18.26;95.25;102524.81;5278689;28;20059;-77
2022/08/10 07:18:35;;;;;;;7.47;5.60;;;;;;;18.36;94.07;102520.59;5292505;28;20048;-76
2022/08/10 07:21:07;;;;;;;7.50;4.97;;;;;;;18.43;96.87;102517.53;5294623;28;20508;-76
2022/08/10 07:23:43;;;;;;;7.53;4.90;;;;;;;18.55;95.63;102519.38;5295005;28;20742;-77
2022/08/10 07:26:16;;;;;;;7.07;5.13;;;;;;;18.68;91.64;102523.81;5294780;28;20032;-76
2022/08/10 07:28:49;;;;;;;7.27;4.77;;;;;;;18.77;89.58;102517.91;5296432;28;20020;-77
2022/08/10 07:31:21;;;;;;;6.90;5.57;;;;;;;18.81;92.11;102519.41;5294606;28;20020;-74
2022/08/10 07:33:54;;;;;;;11.40;5.30;;;;;;;18.98;89.33;102514.72;5295612;28;20028;-73
2022/08/10 07:36:26;;;;;;;7.57;5.50;;;;;;;19.15;88.72;102515.38;5297379;28;20594;-74
2022/08/10 07:38:59;;;;;;;7.63;4.87;;;;;;;19.32;86.43;102532.78;5297778;28;20472;-75
2022/08/10 07:41:33;;;;;;;7.70;5.60;;;;;;;19.44;86.64;102520.44;5295323;28;20016;-76
2022/08/10 07:44:05;;;;;;;7.63;5.45;;;;;;;19.47;84.80;102512.25;5295783;28;20017;-75
2022/08/10 07:46:43;;;;;;;10.70;5.07;;;;;;;19.54;82.80;102526.78;5294658;28;20093;-74
2022/08/10 07:49:26;;;;;;;6.43;5.60;;;;;;;19.66;81.41;102519.72;5295697;28;20030;-76
2022/08/10 07:51:58;;;;;;;6.80;5.07;;;;;;;19.89;83.46;102522.53;5295082;28;20063;-74
2022/08/10 07:54:33;;;;;;;5.63;4.80;;;;;;;19.98;84.37;102518.34;5295188;28;20028;-73
2022/08/10 07:57:11;;;;;;;8.43;4.50;;;;;;;20.10;85.16;102521.06;5294539;28;20028;-74
2022/08/10 07:59:47;;;;;;;8.80;4.83;;;;;;;20.23;76.27;102526.34;5293939;28;20032;-75
2022/08/10 08:02:45;;;;;;;8.33;5.63;;;;;;;20.38;81.26;102524.31;5273124;28;20056;-75
2022/08/10 08:05:19;;;;;;;8.17;4.53;;;;;;;;;;5273546;28;20029;-74
2022/08/10 08:07:52;;;;;;;13.60;4.82;;;;;;;20.78;79.67;102528.41;5274361;28;20029;-74
2022/08/10 08:10:27;;;;;;;5.57;4.90;;;;;;;20.62;75.23;102518.94;5274184;28;20027;-74
2022/08/10 08:13:00;;;;;;;7.93;4.87;;;;;;;20.76;74.13;102527.69;5274269;28;20119;-75
2022/08/10 08:15:33;;;;;;;7.20;4.73;;;;;;;20.82;72.39;102513.06;5272052;28;20392;-75
2022/08/10 08:18:07;;;;;;;6.85;4.40;;;;;;;21.19;76.78;102523.50;5272327;28;20052;-75
2022/08/10 08:20:39;;;;;;;4.78;4.05;;;;;;;21.34;74.21;102521.44;5286638;28;20439;-74
2022/08/10 08:23:12;;;;;;;6.88;4.90;;;;;;;21.41;70.40;102516.47;5294960;28;20054;-74
2022/08/10 08:25:45;;;;;;;8.35;5.00;;;;;;;21.45;70.33;102522.41;5286204;28;20023;-74
2022/08/10 08:28:16;;;;;;;7.85;4.60;;;;;;;21.54;69.67;102523.47;5293144;28;20142;-75
2022/08/10 08:30:49;;;;;;;10.77;4.40;;;;;;;21.74;69.79;102520.03;5294716;28;20111;-74
2022/08/10 08:33:21;;;;;;;8.23;3.88;;;;;;;21.83;69.61;102513.16;5292427;28;20032;-75
2022/08/10 08:35:53;;;;;;;6.28;4.15;;;;;;;22.06;70.29;102512.22;5292510;28;20481;-74
2022/08/10 08:38:26;;;;;;;7.25;4.35;;;;;;;22.30;68.84;102516.47;5273437;28;20042;-73
2022/08/10 08:41:20;;;;;;;7.93;4.35;;;;;;;22.23;69.04;102500.97;5273480;28;20066;-77
2022/08/10 08:44:06;;;;;;;7.32;4.60;;;;;;;22.30;66.45;102516.47;5287077;28;20031;-76
2022/08/10 08:47:13;;;;;;;10.15;4.10;;;;;;;22.26;65.56;102499.00;5281977;28;20051;-72
2022/08/10 08:50:18;;;;;;;4.95;3.53;;;;;;;22.51;64.55;102512.94;5241937;28;20467;-77
2022/08/10 08:53:09;;;;;;;9.13;4.38;;;;;;;22.62;64.79;102510.22;5271693;28;20519;-76
2022/08/10 08:55:50;;;;;;;7.60;5.13;;;;;;;22.65;63.18;102512.66;5290978;28;20060;-75
2022/08/10 08:58:56;;;;;;;6.13;4.72;;;;;;;22.90;63.91;102523.88;5293488;28;20097;-76
2022/08/10 09:01:37;;;;;;;8.35;4.93;;;;;;;22.98;62.42;102525.03;5292058;28;20027;-76
2022/08/10 09:04:24;;;;;;;7.38;4.75;;;;;;;23.13;61.95;102518.34;5294155;28;20071;-77
2022/08/10 09:07:18;;;;;;;10.02;5.03;;;;;;;23.25;61.22;102515.59;5293196;28;20149;-82
2022/08/10 09:10:03;;;;;;;7.32;5.03;;;;;;;23.21;59.52;102507.81;5290809;28;20043;-81
2022/08/10 09:12:42;;;;;;;12.82;4.47;;;;;;;23.49;61.26;102504.56;5293288;28;20099;-82
2022/08/10 09:15:34;;;;;;;9.07;4.75;;;;;;;23.55;57.93;102495.13;5293979;28;20047;-79
2022/08/10 09:18:30;;;;;;;9.10;4.85;;;;;;;23.87;57.15;102499.38;5291897;28;20024;-84
2022/08/10 09:21:18;;;;;;;4.85;4.15;;;;;;;23.74;56.92;102490.81;5294488;28;20032;-84
2022/08/10 09:24:01;;;;;;;10.13;4.35;;;;;;;23.88;55.92;102492.19;5293499;28;20031;-84
2022/08/10 09:26:45;;;;;;;11.65;4.15;;;;;;;23.88;53.94;102489.50;5292194;28;20415;-84
2022/08/10 09:29:26;;;;;;;9.80;4.35;;;;;;;24.02;54.60;102480.22;5292379;28;20020;-84
2022/08/10 09:32:09;;;;;;;5.45;3.78;;;;;;;24.18;55.32;102493.06;5291627;28;20028;-83
2022/08/10 09:35:10;;;;;;;6.93;3.75;;;;;;;24.32;54.40;102478.38;5292771;28;20028;-83
2022/08/10 09:37:53;;;;;;;8.63;3.20;;;;;;;24.36;53.82;102485.16;5291743;28;20062;-83
2022/08/10 09:40:42;;;;;;;6.33;3.90;;;;;;;24.25;52.34;102480.81;5291951;28;20510;-83
2022/08/10 09:43:34;;;;;;;6.32;3.40;;;;;;;24.64;50.76;102473.66;5291660;28;20651;-82
2022/08/10 09:46:33;;;;;;;6.05;4.63;;;;;;;24.42;52.72;102486.38;5292921;28;20115;-84
2022/08/10 09:49:15;;;;;;;5.13;3.97;;;;;;;24.70;52.21;102477.59;5292694;28;20692;-84
2022/08/10 09:51:50;;;;;;;8.23;3.67;;;;;;;24.75;51.64;102469.97;5292066;28;20024;-84
2022/08/10 09:55:06;;;;;;;8.38;3.20;;;;;;;24.93;52.07;102471.88;5292946;28;20024;-84
2022/08/10 09:58:02;;;;;;;6.68;3.58;;;;;;;25.00;51.39;102454.19;5272115;28;20040;-83
2022/08/10 10:00:46;;;;;;;7.43;3.10;;;;;;;25.10;50.67;102460.34;5293821;28;20211;-84
2022/08/10 10:03:34;;;;;;;11.05;5.22;;;;;;;25.46;50.50;102461.41;5292299;28;20036;-84
2022/08/10 10:06:18;;;;;;;8.82;4.10;;;;;;;25.44;49.25;102458.03;5292546;28;20059;-84
2022/08/10 10:08:58;;;;;;;8.40;3.42;;;;;;;25.65;50.16;102467.66;5286196;28;20036;-81
2022/08/10 10:11:55;;;;;;;8.05;2.72;;;;;;;25.94;49.40;102458.50;5292467;28;20372;-81
2022/08/10 10:17:47;;;;;;;4.45;2.33;;;;;;;26.16;45.96;102454.47;5292255;28;20032;-81
2022/08/10 10:20:28;;;;;;;10.95;2.63;;;;;;;26.43;44.86;102451.81;5292814;28;20115;-81
2022/08/10 10:23:15;;;;;;;6.03;2.65;;;;;;;26.60;43.68;102449.22;5291670;28;20380;-81
2022/08/10 10:25:58;;;;;;;7.68;2.72;;;;;;;26.63;42.92;102432.78;5292335;28;20116;-82
2022/08/10 10:28:51;;;;;;;7.03;2.45;;;;;;;26.54;42.37;102432.75;5275722;28;20108;-82
2022/08/10 10:31:46;;;;;;;5.47;2.30;;;;;;;26.89;42.79;102435.41;5275289;28;20051;-83
2022/08/10 10:34:36;;;;;;;6.90;2.80;;;;;;;27.16;42.80;102429.97;5275843;28;20396;-82
2022/08/10 10:37:10;;;;;;;7.13;2.20;;;;;;;27.04;42.06;102422.19;5275984;28;20044;-82
2022/08/10 10:39:45;;;;;;;8.60;2.67;;;;;;;27.36;40.08;102425.13;5275533;28;20119;-81
2022/08/10 10:42:34;;;;;;;8.45;2.67;;;;;;;27.52;41.21;102421.59;5274137;28;20024;-82
2022/08/10 10:45:18;;;;;;;6.05;2.70;;;;;;;27.77;39.60;102428.88;5274782;28;20024;-82
2022/08/10 10:48:11;;;;;;;8.30;2.38;;;;;;;27.64;39.21;102415.88;5274663;28;20020;-83
2022/08/10 10:51:01;;;;;;;5.28;2.10;;;;;;;28.19;39.08;102408.06;5279947;28;20028;-82
2022/08/10 10:53:43;;;;;;;7.72;2.55;;;;;;;28.21;36.51;102407.91;5279867;28;20759;-82
2022/08/10 10:56:29;;;;;;;3.80;2.05;;;;;;;28.46;37.69;102415.94;5272913;28;20032;-82
2022/08/10 10:59:23;;;;;;;5.82;1.75;;;;;;;28.66;35.75;102408.28;5275018;28;20059;-83
2022/08/10 11:02:06;;;;;;;3.33;2.17;;;;;;;28.69;35.63;102407.09;5288446;28;20119;-81
2022/08/10 11:04:57;;;;;;;6.05;2.03;;;;;;;29.11;35.59;102399.66;5296364;28;20066;-82
2022/08/10 11:07:52;;;;;;;6.80;2.50;;;;;;;29.25;36.21;102387.25;5294730;28;20081;-82
2022/08/10 11:10:30;;;;;;;5.45;2.22;;;;;;;29.50;34.61;102386.19;5287956;28;20043;-82
2022/08/10 11:13:02;;;;;;;7.45;2.25;;;;;;;29.32;34.17;102390.06;5291769;28;20025;-82
2022/08/10 11:15:42;;;;;;;8.95;2.15;;;;;;;29.81;33.65;102382.56;5274051;28;20082;-81
2022/08/10 11:18:26;;;;;;;7.35;2.17;;;;;;;29.87;34.53;102387.22;5277463;28;20419;-81
2022/08/10 11:21:23;;;;;;;5.25;2.17;;;;;;;30.07;35.03;102382.09;5275744;28;20017;-81
2022/08/10 11:24:12;;;;;;;5.10;2.15;;;;;;;30.37;34.02;102372.34;5226596;28;20047;-81
2022/08/10 11:26:43;;;;;;;4.35;2.05;;;;;;;30.27;30.74;102381.56;5274188;28;20085;-82
2022/08/10 11:29:48;;;;;;;4.47;1.88;;;;;;;30.34;33.03;102378.94;5276422;28;20536;-81
2022/08/10 11:32:35;;;;;;;5.38;2.10;;;;;;;30.55;32.00;102386.28;5256598;28;20037;-81
2022/08/10 11:35:19;;;;;;;4.45;2.10;;;;;;;30.43;31.56;102388.63;5275067;28;20515;-80
2022/08/10 11:37:58;;;;;;;4.20;2.10;;;;;;;30.49;31.96;102378.09;5292825;28;20583;-81
2022/08/10 11:40:49;;;;;;;7.93;2.30;;;;;;;30.67;31.26;102386.63;5293820;28;20062;-81
2022/08/10 11:43:26;;;;;;;11.90;2.50;;;;;;;30.46;29.47;102382.00;5296068;28;20024;-81
2022/08/10 11:46:17;;;;;;;4.60;2.10;;;;;;;30.55;31.47;102366.53;5294914;28;20421;-80
2022/08/10 11:49:11;;;;;;;9.70;2.45;;;;;;;30.48;31.14;102379.09;5273943;28;20540;-81
2022/08/10 11:51:46;;;;;;;7.25;2.13;;;;;;;30.44;31.30;102373.28;5273956;28;20029;-81
2022/08/10 11:54:38;;;;;;;3.92;2.05;;;;;;;30.72;32.16;102371.72;5274317;28;20051;-81
2022/08/10 11:57:10;;;;;;;6.72;2.20;;;;;;;30.69;31.79;102370.22;5277662;28;20029;-81
2022/08/10 11:59:57;;;;;;;7.22;2.78;;;;;;;30.45;30.53;102360.56;5272750;28;20021;-81
2022/08/10 12:02:34;;;;;;;4.28;2.00;;;;;;;30.70;31.49;102365.66;5273964;28;20477;-82
2022/08/10 12:05:09;;;;;;;7.30;2.65;;;;;;;30.85;31.53;102360.22;5287457;28;20089;-81
2022/08/10 12:07:50;;;;;;;4.90;2.33;;;;;;;30.69;32.00;102351.28;5295444;28;20040;-81
2022/08/10 12:10:23;;;;;;;7.30;2.75;;;;;;;30.84;31.01;102350.44;5293324;28;20032;-81
2022/08/10 12:13:24;;;;;;;5.63;2.10;;;;;;;30.84;32.74;102353.16;5294393;28;20072;-81
2022/08/10 12:16:33;;;;;;;4.97;2.10;;;;;;;30.95;32.25;102362.63;5291651;28;20082;-81
2022/08/10 12:19:14;;;;;;;6.38;2.42;;;;;;;30.78;30.85;102347.44;5209389;28;20123;-81
2022/08/10 12:21:56;;;;;;;4.45;2.22;;;;;;;30.87;31.30;102348.19;5284694;28;20097;-81